createdAt,value
2018-04-06T00:00:09.000Z,27.8
2018-04-06T00:02:09.000Z,27.8
2018-04-06T00:03:09.000Z,27.8
2018-04-06T00:05:09.000Z,27.8
2018-04-06T00:06:09.000Z,27.8
2018-04-06T00:07:09.000Z,27.8
2018-04-06T00:08:10.000Z,27.9
2018-04-06T00:09:54.000Z,27.9
2018-04-06T00:11:10.000Z,27.9
2018-04-06T00:12:10.000Z,27.9
2018-04-06T00:14:10.000Z,27.9
2018-04-06T00:16:10.000Z,27.9
2018-04-06T00:18:10.000Z,27.8
2018-04-06T00:19:10.000Z,27.8
2018-04-06T00:21:10.000Z,27.8
2018-04-06T00:23:10.000Z,27.8
2018-04-06T00:24:10.000Z,27.8
2018-04-06T00:26:10.000Z,27.8
2018-04-06T00:27:10.000Z,27.8
2018-04-06T00:28:10.000Z,27.9
2018-04-06T00:30:10.000Z,27.9
2018-04-06T00:32:10.000Z,27.9
2018-04-06T00:34:10.000Z,27.8
2018-04-06T00:35:10.000Z,27.8
2018-04-06T00:36:10.000Z,27.9
2018-04-06T00:38:10.000Z,27.8
2018-04-06T00:39:10.000Z,27.8
2018-04-06T00:41:10.000Z,27.8
2018-04-06T00:43:10.000Z,27.7
2018-04-06T00:45:10.000Z,27.7
2018-04-06T00:47:10.000Z,27.6
2018-04-06T00:48:10.000Z,27.6
2018-04-06T00:50:10.000Z,27.6
2018-04-06T00:51:10.000Z,27.6
2018-04-06T00:53:10.000Z,27.7
2018-04-06T00:55:10.000Z,27.7
2018-04-06T00:57:10.000Z,27.7
2018-04-06T00:58:10.000Z,27.7
2018-04-06T01:00:10.000Z,27.7
2018-04-06T01:02:10.000Z,27.7
2018-04-06T01:03:10.000Z,27.7
2018-04-06T01:04:10.000Z,27.8
2018-04-06T01:05:10.000Z,27.8
2018-04-06T01:06:10.000Z,27.9
2018-04-06T01:07:10.000Z,27.9
2018-04-06T01:09:10.000Z,27.9
2018-04-06T01:10:10.000Z,27.9
2018-04-06T01:11:10.000Z,28
2018-04-06T01:12:10.000Z,28
2018-04-06T01:14:10.000Z,28
2018-04-06T01:15:10.000Z,28
2018-04-06T01:16:54.000Z,28
2018-04-06T01:18:10.000Z,27.9
2018-04-06T01:20:10.000Z,27.9
2018-04-06T01:21:10.000Z,27.9
2018-04-06T01:23:10.000Z,27.9
2018-04-06T01:24:10.000Z,27.9
2018-04-06T01:25:10.000Z,27.9
2018-04-06T01:26:10.000Z,27.9
2018-04-06T01:27:10.000Z,28
2018-04-06T01:29:10.000Z,28
2018-04-06T01:30:10.000Z,27.9
2018-04-06T01:32:10.000Z,27.9
2018-04-06T01:34:10.000Z,27.8
2018-04-06T01:36:10.000Z,27.7
2018-04-06T01:37:10.000Z,27.6
2018-04-06T01:39:10.000Z,27.7
2018-04-06T01:41:10.000Z,27.6
2018-04-06T01:42:10.000Z,27.6
2018-04-06T01:43:10.000Z,27.7
2018-04-06T01:45:10.000Z,27.7
2018-04-06T01:46:10.000Z,27.7
2018-04-06T01:48:10.000Z,27.7
2018-04-06T01:49:54.000Z,27.7
2018-04-06T01:51:10.000Z,27.7
2018-04-06T01:53:10.000Z,27.6
2018-04-06T01:54:10.000Z,27.6
2018-04-06T01:56:10.000Z,27.7
2018-04-06T01:57:10.000Z,27.7
2018-04-06T01:59:10.000Z,27.7
2018-04-06T02:00:10.000Z,27.7
2018-04-06T02:02:10.000Z,27.8
2018-04-06T02:04:10.000Z,27.7
2018-04-06T02:05:10.000Z,27.7
2018-04-06T02:06:10.000Z,27.8
2018-04-06T02:07:10.000Z,27.8
2018-04-06T02:09:10.000Z,27.8
2018-04-06T02:11:10.000Z,27.8
2018-04-06T02:13:10.000Z,27.7
2018-04-06T02:15:10.000Z,27.6
2018-04-06T02:16:10.000Z,27.5
2018-04-06T02:18:10.000Z,27.6
2018-04-06T02:19:10.000Z,27.6
2018-04-06T02:20:10.000Z,27.6
2018-04-06T02:22:10.000Z,27.7
2018-04-06T02:23:10.000Z,27.7
2018-04-06T02:24:10.000Z,27.8
2018-04-06T02:26:10.000Z,27.8
2018-04-06T02:27:10.000Z,27.8
2018-04-06T02:29:10.000Z,27.8
2018-04-06T02:31:10.000Z,27.8
2018-04-06T02:33:10.000Z,27.7
2018-04-06T02:34:10.000Z,27.7
2018-04-06T02:35:55.000Z,27.7
2018-04-06T02:37:10.000Z,27.7
2018-04-06T02:39:10.000Z,27.7
2018-04-06T02:41:10.000Z,27.6
2018-04-06T02:43:10.000Z,27.6
2018-04-06T02:45:10.000Z,27.5
2018-04-06T02:47:10.000Z,27.5
2018-04-06T02:48:10.000Z,27.5
2018-04-06T02:49:55.000Z,27.6
2018-04-06T02:51:10.000Z,27.5
2018-04-06T02:53:10.000Z,27.6
2018-04-06T02:54:10.000Z,27.6
2018-04-06T02:56:10.000Z,27.6
2018-04-06T02:57:10.000Z,27.6
2018-04-06T02:58:10.000Z,27.7
2018-04-06T03:00:10.000Z,27.7
2018-04-06T03:01:10.000Z,27.7
2018-04-06T03:02:10.000Z,27.7
2018-04-06T03:04:10.000Z,27.7
2018-04-06T03:06:10.000Z,27.6
2018-04-06T03:07:10.000Z,27.6
2018-04-06T03:09:10.000Z,27.6
2018-04-06T03:11:10.000Z,27.6
2018-04-06T03:12:10.000Z,27.6
2018-04-06T03:13:10.000Z,27.6
2018-04-06T03:14:10.000Z,27.7
2018-04-06T03:15:10.000Z,27.8
2018-04-06T03:16:55.000Z,27.8
2018-04-06T03:18:10.000Z,27.8
2018-04-06T03:20:10.000Z,27.8
2018-04-06T03:22:10.000Z,27.7
2018-04-06T03:23:10.000Z,27.7
2018-04-06T03:24:10.000Z,27.7
2018-04-06T03:25:55.000Z,27.8
2018-04-06T03:27:10.000Z,27.7
2018-04-06T03:28:10.000Z,27.7
2018-04-06T03:30:10.000Z,27.7
2018-04-06T03:31:10.000Z,27.6
2018-04-06T03:33:10.000Z,27.6
2018-04-06T03:35:10.000Z,27.6
2018-04-06T03:37:10.000Z,27.5
2018-04-06T03:38:10.000Z,27.5
2018-04-06T03:40:10.000Z,27.5
2018-04-06T03:41:10.000Z,27.5
2018-04-06T03:43:10.000Z,27.5
2018-04-06T03:45:10.000Z,27.5
2018-04-06T03:46:10.000Z,27.5
2018-04-06T03:47:10.000Z,27.5
2018-04-06T03:49:10.000Z,27.5
2018-04-06T03:50:10.000Z,27.6
2018-04-06T03:51:10.000Z,27.6
2018-04-06T03:52:55.000Z,27.7
2018-04-06T03:54:10.000Z,27.6
2018-04-06T03:55:10.000Z,27.7
2018-04-06T03:56:10.000Z,27.7
2018-04-06T03:57:55.000Z,27.7
2018-04-06T03:59:10.000Z,27.7
2018-04-06T04:00:10.000Z,27.7
2018-04-06T04:02:10.000Z,27.7
2018-04-06T04:04:10.000Z,27.7
2018-04-06T04:06:10.000Z,27.6
2018-04-06T04:08:10.000Z,27.5
2018-04-06T04:09:10.000Z,27.5
2018-04-06T04:10:10.000Z,27.6
2018-04-06T04:11:10.000Z,27.6
2018-04-06T04:12:10.000Z,27.6
2018-04-06T04:14:10.000Z,27.6
2018-04-06T04:15:10.000Z,27.6
2018-04-06T04:16:10.000Z,27.6
2018-04-06T04:18:10.000Z,27.6
2018-04-06T04:19:10.000Z,27.6
2018-04-06T04:21:10.000Z,27.6
2018-04-06T04:22:10.000Z,27.6
2018-04-06T04:23:10.000Z,27.6
2018-04-06T04:25:10.000Z,27.5
2018-04-06T04:26:10.000Z,27.5
2018-04-06T04:28:10.000Z,27.5
2018-04-06T04:30:10.000Z,27.4
2018-04-06T04:32:10.000Z,27.3
2018-04-06T04:33:10.000Z,27.3
2018-04-06T04:35:10.000Z,27.3
2018-04-06T04:37:10.000Z,27.3
2018-04-06T04:39:10.000Z,27.3
2018-04-06T04:40:55.000Z,27.3
2018-04-06T04:42:10.000Z,27.2
2018-04-06T04:44:10.000Z,27.2
2018-04-06T04:46:10.000Z,27.3
2018-04-06T04:47:55.000Z,27.3
2018-04-06T04:49:10.000Z,27.3
2018-04-06T04:50:10.000Z,27.3
2018-04-06T04:51:10.000Z,27.4
2018-04-06T04:53:10.000Z,27.5
2018-04-06T04:55:10.000Z,26.6
2018-04-06T04:57:10.000Z,25.5
2018-04-06T04:58:10.000Z,25
2018-04-06T05:00:10.000Z,24.2
2018-04-06T05:01:10.000Z,23.9
2018-04-06T05:02:10.000Z,23.7
2018-04-06T05:03:10.000Z,23.5
2018-04-06T05:05:10.000Z,23.1
2018-04-06T05:07:10.000Z,22.7
2018-04-06T05:09:10.000Z,22.4
2018-04-06T05:10:10.000Z,22.2
2018-04-06T05:12:10.000Z,22
2018-04-06T05:13:10.000Z,21.9
2018-04-06T05:14:10.000Z,21.9
2018-04-06T05:15:10.000Z,21.9
2018-04-06T05:17:10.000Z,21.9
2018-04-06T05:19:10.000Z,21.7
2018-04-06T05:20:55.000Z,21.5
2018-04-06T05:22:10.000Z,21.4
2018-04-06T05:24:10.000Z,21.2
2018-04-06T05:26:10.000Z,21
2018-04-06T05:28:10.000Z,20.9
2018-04-06T05:30:10.000Z,20.8
2018-04-06T05:31:10.000Z,20.8
2018-04-06T05:33:10.000Z,20.7
2018-04-06T05:35:10.000Z,20.6
2018-04-06T05:37:10.000Z,20.8
2018-04-06T05:38:10.000Z,20.9
2018-04-06T05:40:10.000Z,21
2018-04-06T05:42:10.000Z,20.9
2018-04-06T05:43:10.000Z,20.8
2018-04-06T05:44:10.000Z,20.9
2018-04-06T05:46:10.000Z,20.8
2018-04-06T05:47:10.000Z,20.6
2018-04-06T05:48:10.000Z,20.5
2018-04-06T05:49:10.000Z,20.4
2018-04-06T05:50:10.000Z,20.4
2018-04-06T05:52:10.000Z,20.3
2018-04-06T05:53:10.000Z,20.3
2018-04-06T05:55:10.000Z,20.4
2018-04-06T05:56:10.000Z,20.4
2018-04-06T05:58:10.000Z,20.4
2018-04-06T06:00:10.000Z,20.3
2018-04-06T06:01:10.000Z,20.3
2018-04-06T06:03:10.000Z,20.3
2018-04-06T06:04:10.000Z,20.3
2018-04-06T06:06:10.000Z,20.2
2018-04-06T06:07:10.000Z,20.2
2018-04-06T06:08:10.000Z,20.2
2018-04-06T06:10:10.000Z,20.3
2018-04-06T06:12:10.000Z,20.2
2018-04-06T06:13:10.000Z,20.1
2018-04-06T06:14:10.000Z,20.1
2018-04-06T06:15:10.000Z,20.1
2018-04-06T06:17:10.000Z,20.2
2018-04-06T06:19:10.000Z,20.2
2018-04-06T06:20:10.000Z,20.2
2018-04-06T06:21:10.000Z,20.2
2018-04-06T06:23:10.000Z,20.4
2018-04-06T06:25:10.000Z,20.5
2018-04-06T06:26:10.000Z,20.7
2018-04-06T06:28:10.000Z,21
2018-04-06T06:29:10.000Z,21.1
2018-04-06T06:31:10.000Z,21.3
2018-04-06T06:32:10.000Z,21.3
2018-04-06T06:33:10.000Z,21.3
2018-04-06T06:35:10.000Z,21.2
2018-04-06T06:36:10.000Z,21.1
2018-04-06T06:38:10.000Z,21.1
2018-04-06T06:39:10.000Z,21.2
2018-04-06T06:41:10.000Z,21.3
2018-04-06T06:43:10.000Z,21.3
2018-04-06T06:45:10.000Z,21.3
2018-04-06T06:46:10.000Z,21.3
2018-04-06T06:48:10.000Z,21.5
2018-04-06T06:50:10.000Z,21.6
2018-04-06T06:52:10.000Z,21.7
2018-04-06T06:53:10.000Z,21.8
2018-04-06T06:55:10.000Z,21.9
2018-04-06T06:56:10.000Z,21.9
2018-04-06T06:57:10.000Z,22
2018-04-06T06:58:54.000Z,22.2
2018-04-06T07:00:10.000Z,22.2
2018-04-06T07:02:10.000Z,22.2
2018-04-06T07:03:10.000Z,22.2
2018-04-06T07:05:10.000Z,22.5
2018-04-06T07:06:10.000Z,22.5
2018-04-06T07:08:10.000Z,22.7
2018-04-06T07:09:10.000Z,22.8
2018-04-06T07:11:10.000Z,22.9
2018-04-06T07:12:10.000Z,23
2018-04-06T07:14:10.000Z,23.1
2018-04-06T07:16:10.000Z,23.1
2018-04-06T07:17:10.000Z,23.1
2018-04-06T07:18:10.000Z,23.2
2018-04-06T07:19:10.000Z,23.4
2018-04-06T07:20:10.000Z,23.5
2018-04-06T07:22:10.000Z,23.6
2018-04-06T07:24:10.000Z,23.7
2018-04-06T07:26:10.000Z,23.8
2018-04-06T07:28:10.000Z,23.8
2018-04-06T07:31:18.000Z,24.1
2018-04-06T07:33:04.000Z,24.4
2018-04-06T07:35:05.000Z,24.4
2018-04-06T07:36:05.000Z,24.4
2018-04-06T07:38:05.000Z,24.4
2018-04-06T07:39:05.000Z,24.4
2018-04-06T07:40:05.000Z,24.4
2018-04-06T07:42:05.000Z,24.3
2018-04-06T07:43:05.000Z,24.3
2018-04-06T07:44:50.000Z,24.3
2018-04-06T07:46:05.000Z,24.3
2018-04-06T07:47:05.000Z,24.3
2018-04-06T07:48:05.000Z,24.2
2018-04-06T07:49:05.000Z,24.1
2018-04-06T07:51:05.000Z,24
2018-04-06T07:52:05.000Z,23.9
2018-04-06T07:53:05.000Z,23.9
2018-04-06T07:55:05.000Z,23.8
2018-04-06T07:56:05.000Z,23.8
2018-04-06T07:58:05.000Z,23.7
2018-04-06T07:59:05.000Z,23.6
2018-04-06T08:01:05.000Z,23.6
2018-04-06T08:03:05.000Z,23.5
2018-04-06T08:04:05.000Z,23.4
2018-04-06T08:06:05.000Z,23.3
2018-04-06T08:07:05.000Z,23.3
2018-04-06T08:08:05.000Z,23.3
2018-04-06T08:09:05.000Z,23.3
2018-04-06T08:10:05.000Z,23.3
2018-04-06T08:11:05.000Z,23.3
2018-04-06T08:12:05.000Z,23.4
2018-04-06T08:14:05.000Z,23.4
2018-04-06T08:15:05.000Z,23.4
2018-04-06T08:17:05.000Z,23.3
2018-04-06T08:19:05.000Z,23.2
2018-04-06T08:21:05.000Z,23
2018-04-06T08:23:05.000Z,23
2018-04-06T08:25:05.000Z,22.9
2018-04-06T08:26:05.000Z,22.9
2018-04-06T08:28:05.000Z,23
2018-04-06T08:29:05.000Z,23
2018-04-06T08:30:05.000Z,23.1
2018-04-06T08:32:05.000Z,23.2
2018-04-06T08:33:05.000Z,23.2
2018-04-06T08:34:50.000Z,23.2
2018-04-06T08:36:05.000Z,23.2
2018-04-06T08:38:05.000Z,23.2
2018-04-06T08:40:05.000Z,23.1
2018-04-06T08:42:05.000Z,23.1
2018-04-06T08:43:05.000Z,23.1
2018-04-06T08:44:05.000Z,23.2
2018-04-06T08:45:05.000Z,23.2
2018-04-06T08:46:05.000Z,23.3
2018-04-06T08:47:05.000Z,23.4
2018-04-06T08:49:05.000Z,23.4
2018-04-06T08:51:05.000Z,23.6
2018-04-06T08:52:05.000Z,23.8
2018-04-06T08:53:05.000Z,24
2018-04-06T08:55:05.000Z,24.3
2018-04-06T08:57:05.000Z,24.4
2018-04-06T08:59:05.000Z,24.6
2018-04-06T09:01:05.000Z,24.7
2018-04-06T09:03:05.000Z,24.9
2018-04-06T09:04:05.000Z,24.9
2018-04-06T09:05:05.000Z,25.1
2018-04-06T09:07:05.000Z,25.2
2018-04-06T09:09:05.000Z,25.4
2018-04-06T09:10:05.000Z,25.4
2018-04-06T09:12:05.000Z,25.5
2018-04-06T09:14:05.000Z,25.6
2018-04-06T09:16:05.000Z,25.6
2018-04-06T09:18:05.000Z,25.6
2018-04-06T09:20:05.000Z,25.6
2018-04-06T09:22:05.000Z,25.7
2018-04-06T09:24:05.000Z,25.8
2018-04-06T09:26:05.000Z,25.9
2018-04-06T09:27:05.000Z,26
2018-04-06T09:28:05.000Z,26
2018-04-06T09:30:05.000Z,26.1
2018-04-06T09:31:05.000Z,26.1
2018-04-06T09:32:05.000Z,26.2
2018-04-06T09:34:05.000Z,26.3
2018-04-06T09:35:05.000Z,26.4
2018-04-06T09:36:05.000Z,26.5
2018-04-06T09:37:05.000Z,26.5
2018-04-06T09:39:05.000Z,26.6
2018-04-06T09:40:05.000Z,26.7
2018-04-06T09:42:05.000Z,26.7
2018-04-06T09:44:05.000Z,26.7
2018-04-06T09:46:05.000Z,26.7
2018-04-06T09:47:05.000Z,26.7
2018-04-06T09:48:05.000Z,26.8
2018-04-06T09:50:05.000Z,26.9
2018-04-06T09:52:05.000Z,26.9
2018-04-06T09:53:05.000Z,26.9
2018-04-06T09:54:05.000Z,27
2018-04-06T09:55:05.000Z,27.1
2018-04-06T09:57:05.000Z,27.2
2018-04-06T09:58:49.000Z,27.2
2018-04-06T10:00:05.000Z,27.2
2018-04-06T10:01:05.000Z,27.2
2018-04-06T10:03:05.000Z,27.2
2018-04-06T10:04:05.000Z,27.3
2018-04-06T10:05:49.000Z,27.3
2018-04-06T10:07:05.000Z,27.3
2018-04-06T10:08:05.000Z,27.3
2018-04-06T10:10:05.000Z,27.4
2018-04-06T10:11:05.000Z,27.4
2018-04-06T10:12:05.000Z,27.5
2018-04-06T10:14:05.000Z,27.6
2018-04-06T10:15:05.000Z,27.6
2018-04-06T10:17:05.000Z,27.6
2018-04-06T10:19:05.000Z,27.6
2018-04-06T10:20:05.000Z,27.6
2018-04-06T10:22:05.000Z,27.7
2018-04-06T10:23:05.000Z,27.7
2018-04-06T10:25:05.000Z,27.8
2018-04-06T10:26:05.000Z,27.8
2018-04-06T10:27:05.000Z,27.8
2018-04-06T10:29:05.000Z,27.9
2018-04-06T10:31:05.000Z,27.8
2018-04-06T10:32:05.000Z,27.8
2018-04-06T10:33:05.000Z,27.8
2018-04-06T10:35:05.000Z,27.9
2018-04-06T10:36:49.000Z,27.8
2018-04-06T10:38:05.000Z,27.8
2018-04-06T10:40:05.000Z,27.8
2018-04-06T10:42:05.000Z,27.7
2018-04-06T10:44:05.000Z,27.7
2018-04-06T10:45:05.000Z,27.7
2018-04-06T10:46:05.000Z,27.7
2018-04-06T10:47:05.000Z,27.7
2018-04-06T10:49:05.000Z,27.9
2018-04-06T10:51:05.000Z,27.9
2018-04-06T10:53:05.000Z,27.9
2018-04-06T10:54:05.000Z,27.9
2018-04-06T10:56:05.000Z,27.9
2018-04-06T10:58:05.000Z,27.9
2018-04-06T11:00:05.000Z,27.8
2018-04-06T11:02:05.000Z,27.8
2018-04-06T11:04:05.000Z,27.8
2018-04-06T11:05:05.000Z,27.8
2018-04-06T11:06:05.000Z,27.9
2018-04-06T11:08:05.000Z,28
2018-04-06T11:10:05.000Z,28
2018-04-06T11:12:05.000Z,28
2018-04-06T11:14:05.000Z,28
2018-04-06T11:15:50.000Z,28
2018-04-06T11:17:05.000Z,28
2018-04-06T11:19:05.000Z,28
2018-04-06T11:21:05.000Z,28
2018-04-06T11:23:05.000Z,28
2018-04-06T11:24:05.000Z,28
2018-04-06T11:25:05.000Z,28
2018-04-06T11:27:05.000Z,28
2018-04-06T11:28:05.000Z,28.1
2018-04-06T11:30:05.000Z,28.1
2018-04-06T11:32:05.000Z,28
2018-04-06T11:34:05.000Z,28
2018-04-06T11:36:05.000Z,28
2018-04-06T11:37:05.000Z,28
2018-04-06T11:38:05.000Z,28
2018-04-06T11:40:05.000Z,28.1
2018-04-06T11:42:05.000Z,28.1
2018-04-06T11:44:05.000Z,28.1
2018-04-06T11:46:05.000Z,28
2018-04-06T11:48:05.000Z,28
2018-04-06T11:49:50.000Z,27.9
2018-04-06T11:51:05.000Z,27.7
2018-04-06T11:53:05.000Z,27.6
2018-04-06T11:54:05.000Z,27.6
2018-04-06T11:56:05.000Z,27.5
2018-04-06T11:58:05.000Z,27.3
2018-04-06T11:59:05.000Z,27.3
2018-04-06T12:01:05.000Z,27.3
2018-04-06T12:02:05.000Z,27.3
2018-04-06T12:04:05.000Z,27.3
2018-04-06T12:06:05.000Z,27.2
2018-04-06T12:07:05.000Z,27.2
2018-04-06T12:08:05.000Z,27.3
2018-04-06T12:10:05.000Z,27.3
2018-04-06T12:12:05.000Z,27.3
2018-04-06T12:13:05.000Z,27.3
2018-04-06T12:14:50.000Z,27.4
2018-04-06T12:16:05.000Z,27.4
2018-04-06T12:18:05.000Z,27.4
2018-04-06T12:20:05.000Z,27.4
2018-04-06T12:21:05.000Z,27.4
2018-04-06T12:23:05.000Z,27.3
2018-04-06T12:24:05.000Z,27.4
2018-04-06T12:26:05.000Z,27.4
2018-04-06T12:28:05.000Z,27.4
2018-04-06T12:29:05.000Z,27.4
2018-04-06T12:31:05.000Z,27.4
2018-04-06T12:32:05.000Z,27.5
2018-04-06T12:34:05.000Z,27.5
2018-04-06T12:35:05.000Z,27.5
2018-04-06T12:37:05.000Z,27.5
2018-04-06T12:38:05.000Z,27.5
2018-04-06T12:40:05.000Z,27.4
2018-04-06T12:41:05.000Z,27.4
2018-04-06T12:43:05.000Z,27.5
2018-04-06T12:44:05.000Z,27.6
2018-04-06T12:46:05.000Z,27.6
2018-04-06T12:47:05.000Z,27.6
2018-04-06T12:49:05.000Z,27.6
2018-04-06T12:50:05.000Z,27.6
2018-04-06T12:52:05.000Z,27.6
2018-04-06T12:53:05.000Z,27.6
2018-04-06T12:54:05.000Z,27.7
2018-04-06T12:55:05.000Z,27.7
2018-04-06T12:56:05.000Z,27.7
2018-04-06T12:57:50.000Z,27.8
2018-04-06T12:59:05.000Z,27.7
2018-04-06T13:01:05.000Z,27.7
2018-04-06T13:02:05.000Z,27.6
2018-04-06T13:03:05.000Z,27.6
2018-04-06T13:04:05.000Z,27.6
2018-04-06T13:06:05.000Z,27.6
2018-04-06T13:07:05.000Z,27.6
2018-04-06T13:09:05.000Z,27.6
2018-04-06T13:10:05.000Z,27.7
2018-04-06T13:11:05.000Z,27.7
2018-04-06T13:13:05.000Z,27.8
2018-04-06T13:14:05.000Z,27.9
2018-04-06T13:15:05.000Z,27.9
2018-04-06T13:17:05.000Z,27.9
2018-04-06T13:18:05.000Z,27.9
2018-04-06T13:20:05.000Z,28
2018-04-06T13:21:05.000Z,28
2018-04-06T13:23:05.000Z,28.1
2018-04-06T13:24:05.000Z,28.1
2018-04-06T13:25:50.000Z,28.1
2018-04-06T13:27:05.000Z,28.1
2018-04-06T13:28:05.000Z,28.1
2018-04-06T13:30:05.000Z,28.2
2018-04-06T13:31:05.000Z,28.2
2018-04-06T13:33:05.000Z,28.3
2018-04-06T13:34:05.000Z,28.4
2018-04-06T13:35:05.000Z,28.5
2018-04-06T13:36:05.000Z,28.6
2018-04-06T13:38:05.000Z,28.8
2018-04-06T13:40:05.000Z,29.8
2018-04-06T13:41:05.000Z,30.7
2018-04-06T13:42:50.000Z,32.6
2018-04-06T13:44:05.000Z,33.7
2018-04-06T13:45:05.000Z,34.5
2018-04-06T13:46:05.000Z,35
2018-04-06T13:47:50.000Z,35.6
2018-04-06T13:49:05.000Z,35.3
2018-04-06T13:50:05.000Z,34.7
2018-04-06T13:51:05.000Z,34
2018-04-06T13:53:05.000Z,32.8
2018-04-06T13:55:05.000Z,31.8
2018-04-06T13:57:05.000Z,31
2018-04-06T13:58:05.000Z,30.8
2018-04-06T14:00:05.000Z,30.4
2018-04-06T14:01:05.000Z,30.3
2018-04-06T14:03:05.000Z,30
2018-04-06T14:05:05.000Z,29.7
2018-04-06T14:06:05.000Z,29.6
2018-04-06T14:08:05.000Z,29.5
2018-04-06T14:09:05.000Z,29.4
2018-04-06T14:10:05.000Z,29.4
2018-04-06T14:12:05.000Z,29.4
2018-04-06T14:14:05.000Z,29.3
2018-04-06T14:15:05.000Z,29.3
2018-04-06T14:17:05.000Z,29.3
2018-04-06T14:18:05.000Z,29.2
2018-04-06T14:19:05.000Z,29.2
2018-04-06T14:20:05.000Z,29.2
2018-04-06T14:21:50.000Z,29.1
2018-04-06T14:23:05.000Z,29.1
2018-04-06T14:24:05.000Z,29.1
2018-04-06T14:25:50.000Z,29.1
2018-04-06T14:27:05.000Z,29
2018-04-06T14:28:05.000Z,29
2018-04-06T14:29:05.000Z,29
2018-04-06T14:31:05.000Z,29
2018-04-06T14:32:05.000Z,29
2018-04-06T14:33:05.000Z,29
2018-04-06T14:34:05.000Z,29
2018-04-06T14:36:05.000Z,29
2018-04-06T14:37:05.000Z,28.9
2018-04-06T14:38:05.000Z,28.9
2018-04-06T14:40:05.000Z,28.8
2018-04-06T14:42:05.000Z,28.7
2018-04-06T14:43:05.000Z,28.7
2018-04-06T14:45:05.000Z,28.6
2018-04-06T14:47:05.000Z,28.6
2018-04-06T14:48:05.000Z,28.6
2018-04-06T14:50:05.000Z,28.7
2018-04-06T14:52:05.000Z,28.6
2018-04-06T14:54:05.000Z,28.5
2018-04-06T14:55:05.000Z,28.5
2018-04-06T14:57:05.000Z,28.5
2018-04-06T14:59:05.000Z,28.5
2018-04-06T15:01:05.000Z,28.5
2018-04-06T15:03:05.000Z,28.5
2018-04-06T15:05:05.000Z,28.5
2018-04-06T15:06:05.000Z,28.5
2018-04-06T15:07:05.000Z,28.5
2018-04-06T15:09:05.000Z,28.5
2018-04-06T15:11:05.000Z,28.5
2018-04-06T15:12:05.000Z,28.5
2018-04-06T15:14:05.000Z,28.5
2018-04-06T15:15:05.000Z,28.5
2018-04-06T15:16:05.000Z,28.6
2018-04-06T15:17:05.000Z,28.7
2018-04-06T15:19:05.000Z,28.7
2018-04-06T15:20:05.000Z,28.7
2018-04-06T15:22:05.000Z,28.7
2018-04-06T15:24:05.000Z,28.6
2018-04-06T15:25:05.000Z,28.6
2018-04-06T15:26:05.000Z,28.6
2018-04-06T15:28:05.000Z,28.5
2018-04-06T15:29:05.000Z,28.5
2018-04-06T15:30:05.000Z,28.6
2018-04-06T15:32:05.000Z,28.6
2018-04-06T15:33:05.000Z,28.6
2018-04-06T15:35:05.000Z,28.6
2018-04-06T15:37:05.000Z,28.5
2018-04-06T15:39:05.000Z,28.5
2018-04-06T15:41:05.000Z,28.4
2018-04-06T15:42:05.000Z,28.4
2018-04-06T15:44:05.000Z,28.4
2018-04-06T15:45:05.000Z,28.4
2018-04-06T15:46:05.000Z,28.4
2018-04-06T15:47:05.000Z,28.4
2018-04-06T15:49:05.000Z,28.5
2018-04-06T15:50:05.000Z,28.5
2018-04-06T15:52:05.000Z,28.5
2018-04-06T15:53:05.000Z,28.5
2018-04-06T15:55:05.000Z,28.5
2018-04-06T15:57:05.000Z,28.5
2018-04-06T15:59:05.000Z,28.4
2018-04-06T16:00:05.000Z,28.4
2018-04-06T16:02:05.000Z,28.5
2018-04-06T16:04:05.000Z,28.4
2018-04-06T16:06:05.000Z,28.4
2018-04-06T16:07:05.000Z,28.4
2018-04-06T16:08:05.000Z,28.4
2018-04-06T16:10:05.000Z,28.4
2018-04-06T16:12:05.000Z,28.4
2018-04-06T16:13:05.000Z,28.4
2018-04-06T16:15:05.000Z,28.4
2018-04-06T16:16:05.000Z,28.4
2018-04-06T16:17:05.000Z,28.4
2018-04-06T16:19:05.000Z,28.4
2018-04-06T16:21:05.000Z,28.4
2018-04-06T16:23:05.000Z,28.3
2018-04-06T16:24:05.000Z,28.3
2018-04-06T16:26:05.000Z,28.3
2018-04-06T16:27:05.000Z,28.3
2018-04-06T16:28:05.000Z,28.4
2018-04-06T16:30:05.000Z,28.5
2018-04-06T16:32:05.000Z,28.5
2018-04-06T16:33:05.000Z,28.5
2018-04-06T16:35:05.000Z,28.5
2018-04-06T16:37:05.000Z,28.4
2018-04-06T16:38:50.000Z,28.4
2018-04-06T16:40:05.000Z,28.3
2018-04-06T16:41:05.000Z,28.3
2018-04-06T16:43:05.000Z,28.4
2018-04-06T16:44:05.000Z,28.4
2018-04-06T16:45:05.000Z,28.4
2018-04-06T16:47:05.000Z,28.4
2018-04-06T16:48:05.000Z,28.4
2018-04-06T16:50:05.000Z,28.4
2018-04-06T16:51:05.000Z,28.4
2018-04-06T16:53:05.000Z,28.4
2018-04-06T16:55:05.000Z,28.4
2018-04-06T16:57:05.000Z,28.4
2018-04-06T16:58:50.000Z,28.4
2018-04-06T17:00:05.000Z,28.3
2018-04-06T17:01:05.000Z,28.3
2018-04-06T17:02:05.000Z,28.4
2018-04-06T17:04:05.000Z,28.4
2018-04-06T17:06:05.000Z,28.5
2018-04-06T17:08:05.000Z,28.5
2018-04-06T17:09:50.000Z,28.5
2018-04-06T17:11:05.000Z,28.4
2018-04-06T17:12:05.000Z,28.4
2018-04-06T17:14:05.000Z,28.5
2018-04-06T17:15:05.000Z,28.5
2018-04-06T17:17:05.000Z,28.6
2018-04-06T17:18:05.000Z,28.6
2018-04-06T17:20:05.000Z,28.6
2018-04-06T17:21:05.000Z,28.6
2018-04-06T17:23:05.000Z,28.6
2018-04-06T17:24:05.000Z,28.6
2018-04-06T17:26:05.000Z,28.6
2018-04-06T17:27:05.000Z,28.6
2018-04-06T17:28:05.000Z,28.7
2018-04-06T17:30:05.000Z,28.7
2018-04-06T17:32:05.000Z,28.6
2018-04-06T17:34:05.000Z,28.5
2018-04-06T17:35:05.000Z,28.5
2018-04-06T17:36:05.000Z,28.5
2018-04-06T17:38:05.000Z,28.6
2018-04-06T17:40:05.000Z,28.5
2018-04-06T17:41:05.000Z,28.5
2018-04-06T17:43:05.000Z,28.6
2018-04-06T17:45:05.000Z,28.5
2018-04-06T17:46:05.000Z,28.4
2018-04-06T17:48:05.000Z,28.4
2018-04-06T17:49:05.000Z,28.5
2018-04-06T17:50:50.000Z,28.5
2018-04-06T17:52:05.000Z,28.5
2018-04-06T17:54:05.000Z,28.4
2018-04-06T17:56:05.000Z,28.4
2018-04-06T17:57:05.000Z,28.4
2018-04-06T17:58:50.000Z,28.5
2018-04-06T18:00:05.000Z,28.4
2018-04-06T18:01:50.000Z,28.4
2018-04-06T18:03:05.000Z,28.4
2018-04-06T18:05:05.000Z,28.3
2018-04-06T18:06:05.000Z,28.3
2018-04-06T18:08:05.000Z,28.3
2018-04-06T18:09:05.000Z,28.3
2018-04-06T18:11:05.000Z,28.3
2018-04-06T18:12:05.000Z,28.4
2018-04-06T18:14:05.000Z,28.4
2018-04-06T18:16:05.000Z,28.4
2018-04-06T18:18:05.000Z,28.3
2018-04-06T18:20:05.000Z,28.3
2018-04-06T18:22:05.000Z,28.3
2018-04-06T18:24:05.000Z,28.2
2018-04-06T18:26:05.000Z,28.1
2018-04-06T18:28:05.000Z,28.1
2018-04-06T18:30:05.000Z,28.1
2018-04-06T18:32:05.000Z,28
2018-04-06T18:34:05.000Z,28
2018-04-06T18:35:50.000Z,28
2018-04-06T18:37:05.000Z,28
2018-04-06T18:39:05.000Z,28
2018-04-06T18:40:05.000Z,28
2018-04-06T18:41:05.000Z,28
2018-04-06T18:43:05.000Z,28.1
2018-04-06T18:45:05.000Z,28
2018-04-06T18:47:05.000Z,28
2018-04-06T18:48:05.000Z,28
2018-04-06T18:49:05.000Z,28.1
2018-04-06T18:50:05.000Z,28.2
2018-04-06T18:51:50.000Z,28.2
2018-04-06T18:53:05.000Z,28.2
2018-04-06T18:54:05.000Z,28.2
2018-04-06T18:56:05.000Z,28.3
2018-04-06T18:57:05.000Z,28.3
2018-04-06T18:58:50.000Z,28.3
2018-04-06T19:00:05.000Z,28.3
2018-04-06T19:01:05.000Z,28.3
2018-04-06T19:03:05.000Z,28.3
2018-04-06T19:05:05.000Z,28.2
2018-04-06T19:07:05.000Z,28.2
2018-04-06T19:09:05.000Z,28.1
2018-04-06T19:10:05.000Z,28.1
2018-04-06T19:12:05.000Z,28.2
2018-04-06T19:14:05.000Z,28.1
2018-04-06T19:16:05.000Z,28.1
2018-04-06T19:17:50.000Z,28
2018-04-06T19:19:05.000Z,28
2018-04-06T19:20:05.000Z,28
2018-04-06T19:21:05.000Z,28.1
2018-04-06T19:23:05.000Z,28.2
2018-04-06T19:24:05.000Z,28.2
2018-04-06T19:25:05.000Z,28.3
2018-04-06T19:27:05.000Z,28.3
2018-04-06T19:29:05.000Z,28.3
2018-04-06T19:30:05.000Z,28.3
2018-04-06T19:32:05.000Z,28.3
2018-04-06T19:33:05.000Z,28.3
2018-04-06T19:34:05.000Z,28.3
2018-04-06T19:36:05.000Z,28.4
2018-04-06T19:38:05.000Z,28.3
2018-04-06T19:40:05.000Z,28.2
2018-04-06T19:41:05.000Z,28.2
2018-04-06T19:43:05.000Z,28.2
2018-04-06T19:44:05.000Z,28.2
2018-04-06T19:45:05.000Z,28.2
2018-04-06T19:46:05.000Z,28.2
2018-04-06T19:48:05.000Z,28.3
2018-04-06T19:50:05.000Z,28.2
2018-04-06T19:51:05.000Z,28.2
2018-04-06T19:53:05.000Z,28.3
2018-04-06T19:54:05.000Z,28.3
2018-04-06T19:56:05.000Z,28.3
2018-04-06T19:58:05.000Z,28.2
2018-04-06T20:00:05.000Z,28.1
2018-04-06T20:01:05.000Z,28.1
2018-04-06T20:02:05.000Z,28.1
2018-04-06T20:03:05.000Z,28.1
2018-04-06T20:05:05.000Z,28.1
2018-04-06T20:07:05.000Z,28.2
2018-04-06T20:09:05.000Z,28.1
2018-04-06T20:10:05.000Z,28.1
2018-04-06T20:11:05.000Z,28.1
2018-04-06T20:13:05.000Z,28.1
2018-04-06T20:14:05.000Z,28.1
2018-04-06T20:16:05.000Z,28.2
2018-04-06T20:17:05.000Z,28.2
2018-04-06T20:19:05.000Z,28.2
2018-04-06T20:20:05.000Z,28.2
2018-04-06T20:22:05.000Z,28.2
2018-04-06T20:23:05.000Z,28.2
2018-04-06T20:25:05.000Z,28.3
2018-04-06T20:27:05.000Z,28.2
2018-04-06T20:28:05.000Z,28.2